createdAt,value
2022-11-12T10:24:37.882Z,5.70
2022-11-12T10:27:15.805Z,5.80
2022-11-12T10:29:50.414Z,5.80
2022-11-12T10:32:18.780Z,5.80
2022-11-12T10:34:46.861Z,5.70
2022-11-12T10:37:20.033Z,5.60
2022-11-12T10:39:50.333Z,5.60
2022-11-12T10:42:20.506Z,5.60
2022-11-12T10:44:49.193Z,5.60
2022-11-12T10:47:28.216Z,5.70
2022-11-12T10:50:22.414Z,5.80
2022-11-12T10:53:02.264Z,5.90
2022-11-12T10:55:33.528Z,6.30
2022-11-12T10:58:16.532Z,6.10
2022-11-12T11:01:03.075Z,6.10
2022-11-12T11:03:35.801Z,6.20
2022-11-12T11:06:06.326Z,8.10
2022-11-12T11:08:37.927Z,5.90
2022-11-12T11:11:33.159Z,5.90
2022-11-12T11:14:26.099Z,5.90
2022-11-12T11:16:56.356Z,6.00
2022-11-12T11:19:29.227Z,6.00
2022-11-12T11:22:14.981Z,6.00
2022-11-12T11:24:54.482Z,6.20
2022-11-12T11:27:33.245Z,6.30
2022-11-12T11:30:11.107Z,6.40
2022-11-12T11:33:00.881Z,6.30
2022-11-12T11:35:54.865Z,6.20
2022-11-12T11:38:43.724Z,6.30
2022-11-12T11:41:31.217Z,6.30
2022-11-12T11:44:13.715Z,6.20
2022-11-12T11:46:56.489Z,6.40
2022-11-12T11:49:50.372Z,6.50
2022-11-12T11:52:52.619Z,6.30
2022-11-12T11:55:33.254Z,6.20
2022-11-12T11:58:11.606Z,6.40
2022-11-12T12:00:47.668Z,6.30
2022-11-12T12:03:32.927Z,8.10
2022-11-12T12:06:15.775Z,6.60
2022-11-12T12:09:00.218Z,6.70
2022-11-12T12:11:35.733Z,6.80
2022-11-12T12:14:18.363Z,6.90
2022-11-12T12:16:57.541Z,6.90
2022-11-12T12:19:49.676Z,7.10
2022-11-12T12:22:22.084Z,7.10
2022-11-12T12:24:53.691Z,7.20
2022-11-12T12:27:27.185Z,7.20
2022-11-12T12:29:59.806Z,7.10
2022-11-12T12:32:34.565Z,7.20
2022-11-12T12:35:08.815Z,7.30
2022-11-12T12:37:40.516Z,7.40
2022-11-12T12:40:19.265Z,7.30
2022-11-12T12:42:52.369Z,7.30
2022-11-12T12:45:36.992Z,7.40
2022-11-12T12:48:12.831Z,7.30
2022-11-12T12:50:42.851Z,7.20
2022-11-12T12:53:33.580Z,7.20
2022-11-12T12:56:03.951Z,7.20
2022-11-12T12:58:33.912Z,7.30
2022-11-12T13:01:04.910Z,7.30
2022-11-12T13:03:56.317Z,7.30
2022-11-12T13:06:30.191Z,7.40
2022-11-12T13:09:02.108Z,7.30
2022-11-12T13:12:11.439Z,7.30
2022-11-12T13:14:59.378Z,7.20
2022-11-12T13:17:57.666Z,7.10
2022-11-12T13:20:44.265Z,7.10
2022-11-12T13:24:05.474Z,7.10
2022-11-12T13:26:52.538Z,7.10
2022-11-12T13:29:40.696Z,7.20
2022-11-12T13:32:32.510Z,7.20
2022-11-12T13:35:35.725Z,7.20
2022-11-12T13:38:12.983Z,7.20
2022-11-12T13:40:44.632Z,7.20
2022-11-12T13:43:19.468Z,7.20
2022-11-12T13:45:50.920Z,7.20
2022-11-12T13:48:25.656Z,7.20
2022-11-12T13:50:57.851Z,7.20
2022-11-12T13:53:29.646Z,7.20
2022-11-12T13:55:57.739Z,7.20
2022-11-12T13:58:31.066Z,7.10
2022-11-12T14:01:01.532Z,7.10
2022-11-12T14:03:33.643Z,7.10
2022-11-12T14:06:06.818Z,7.10
2022-11-12T14:08:54.901Z,7.00
2022-11-12T14:11:46.473Z,7.00
2022-11-12T14:14:40.545Z,7.00
2022-11-12T14:17:22.527Z,6.90
2022-11-12T14:20:22.029Z,6.90
2022-11-12T14:22:52.774Z,7.00
2022-11-12T14:25:24.533Z,6.80
2022-11-12T14:28:29.645Z,6.80
2022-11-12T14:31:00.477Z,6.80
2022-11-12T14:33:30.405Z,6.70
2022-11-12T14:36:03.201Z,6.70
2022-11-12T14:38:37.021Z,6.60
2022-11-12T14:41:10.247Z,6.60
2022-11-12T14:43:40.150Z,7.80
2022-11-12T14:46:09.966Z,7.90
2022-11-12T14:48:48.677Z,7.50
2022-11-12T14:51:17.827Z,6.40
2022-11-12T14:53:50.015Z,6.80
2022-11-12T14:56:35.176Z,6.40
2022-11-12T14:59:11.797Z,6.40
2022-11-12T15:02:21.807Z,6.30
2022-11-12T15:04:37.748Z,7.20
2022-11-12T15:07:11.163Z,6.30
2022-11-12T15:09:40.808Z,6.20
2022-11-12T15:12:14.373Z,6.20
2022-11-12T15:14:42.764Z,6.20
2022-11-12T15:17:28.157Z,6.90
2022-11-12T15:20:02.582Z,6.10
2022-11-12T15:22:32.392Z,6.10
2022-11-12T15:25:23.647Z,6.60
2022-11-12T15:27:56.576Z,6.10
2022-11-12T15:30:28.771Z,6.00
2022-11-12T15:33:14.191Z,6.00
2022-11-12T15:35:45.649Z,5.90
2022-11-12T15:38:34.364Z,6.00
2022-11-12T15:41:04.483Z,6.60
2022-11-12T15:46:31.492Z,6.00
2022-11-12T15:49:00.087Z,6.00
2022-11-12T15:51:28.336Z,8.10
2022-11-12T15:53:56.461Z,6.00
2022-11-12T15:56:24.545Z,6.30
2022-11-12T15:58:54.709Z,5.90
2022-11-12T16:03:51.743Z,5.90
2022-11-12T16:06:19.960Z,7.60
2022-11-12T16:08:48.556Z,7.10
2022-11-12T16:11:31.287Z,6.10
2022-11-12T16:14:01.099Z,6.40
2022-11-12T16:16:29.221Z,7.00
2022-11-12T16:18:57.357Z,5.80
2022-11-12T16:21:25.474Z,5.80
2022-11-12T16:23:53.580Z,5.80
2022-11-12T16:26:27.429Z,5.80
2022-11-12T16:28:55.664Z,6.10
2022-11-12T16:31:25.692Z,5.50
2022-11-12T16:33:53.910Z,5.80
2022-11-12T16:36:22.213Z,5.50
2022-11-12T16:38:51.096Z,7.60
2022-11-12T16:46:26.201Z,5.50
2022-11-12T16:48:55.569Z,6.50
2022-11-12T16:51:24.942Z,5.50
2022-11-12T16:56:23.337Z,5.40
2022-11-12T17:01:27.558Z,5.40
2022-11-12T17:03:57.687Z,5.50
2022-11-12T17:08:59.565Z,5.30
2022-11-12T17:11:27.772Z,5.30
2022-11-12T17:13:56.066Z,6.70
2022-11-12T17:16:24.235Z,5.30
2022-11-12T17:18:56.340Z,5.40
2022-11-12T17:21:24.756Z,6.10
2022-11-12T17:23:52.914Z,7.70
2022-11-12T17:26:22.011Z,6.80
2022-11-12T17:28:55.592Z,5.30
2022-11-12T17:31:27.820Z,6.60
2022-11-12T17:33:57.388Z,7.00
2022-11-12T17:36:27.654Z,7.20
2022-11-12T17:38:56.358Z,5.30
2022-11-12T17:41:25.058Z,5.30
2022-11-12T17:43:56.245Z,5.30
2022-11-12T17:46:24.600Z,6.60
2022-11-12T17:48:53.301Z,7.50
2022-11-12T17:51:24.361Z,7.00
2022-11-12T17:53:52.653Z,6.60
2022-11-12T17:56:23.852Z,6.60
2022-11-12T17:58:52.745Z,5.20
2022-11-12T18:01:23.070Z,5.20
2022-11-12T18:03:53.049Z,5.90
2022-11-12T18:06:25.034Z,7.20
2022-11-12T18:08:54.178Z,7.10
2022-11-12T18:11:23.357Z,5.00
2022-11-12T18:16:22.355Z,4.60
2022-11-12T18:18:51.247Z,6.40
2022-11-12T18:23:49.313Z,4.90
2022-11-12T18:26:18.921Z,6.20
2022-11-12T18:28:52.080Z,6.10
2022-11-12T18:31:20.670Z,4.90
2022-11-12T18:33:48.862Z,4.90
2022-11-12T18:36:18.621Z,7.10
2022-11-12T18:38:50.170Z,5.20
2022-11-12T18:41:19.920Z,5.00
2022-11-12T18:43:48.288Z,4.90
2022-11-12T18:46:16.444Z,5.60
2022-11-12T18:51:15.136Z,4.70
2022-11-12T18:56:15.758Z,4.50
2022-11-12T18:58:44.071Z,7.20
2022-11-12T19:01:16.066Z,5.50
2022-11-12T19:03:45.106Z,4.40
2022-11-12T19:06:14.853Z,4.20
2022-11-12T19:08:43.433Z,4.40
2022-11-12T19:11:15.490Z,4.40
2022-11-12T19:13:44.222Z,6.80
2022-11-12T19:16:17.011Z,4.40
2022-11-12T19:18:45.567Z,5.20
2022-11-12T19:21:15.913Z,6.00
2022-11-12T19:23:44.577Z,5.40
2022-11-12T19:26:15.434Z,4.20
2022-11-12T19:28:44.422Z,6.60
2022-11-12T19:31:15.699Z,4.20
2022-11-12T19:33:44.340Z,5.20
2022-11-12T19:36:15.742Z,4.20
2022-11-12T19:38:43.950Z,4.90
2022-11-12T19:41:19.420Z,4.20
2022-11-12T19:43:48.330Z,4.20
2022-11-12T19:46:16.867Z,4.20
2022-11-12T19:48:45.138Z,4.10
2022-11-12T19:51:14.283Z,4.10
2022-11-12T19:53:45.512Z,6.50
2022-11-12T19:56:17.610Z,4.60
2022-11-12T19:58:46.655Z,4.10
2022-11-12T20:01:17.195Z,5.70
2022-11-12T20:03:45.744Z,4.10
2022-11-12T20:06:15.774Z,4.10
2022-11-12T20:08:43.864Z,4.10
2022-11-12T20:11:12.535Z,4.60
2022-11-12T20:13:42.122Z,4.10
2022-11-12T20:16:12.921Z,5.30
2022-11-12T20:18:41.180Z,4.10
2022-11-12T20:21:10.841Z,4.90
2022-11-12T20:23:42.866Z,5.40
2022-11-12T20:26:12.771Z,4.10
2022-11-12T20:28:44.434Z,4.10
2022-11-12T20:31:13.848Z,5.70
2022-11-12T20:33:43.088Z,6.00
2022-11-12T20:36:12.968Z,3.90
2022-11-12T20:38:43.409Z,4.20
2022-11-12T20:41:15.748Z,4.00
2022-11-12T20:43:45.682Z,4.10
2022-11-12T20:46:15.180Z,3.90
2022-11-12T20:48:43.979Z,5.80
2022-11-12T20:51:23.675Z,5.10
2022-11-12T20:53:58.395Z,4.40
2022-11-12T20:56:29.119Z,3.90
2022-11-12T20:58:59.536Z,4.50
2022-11-12T21:01:29.980Z,6.60
2022-11-12T21:03:58.622Z,5.20
2022-11-12T21:06:29.232Z,3.80
2022-11-12T21:08:59.827Z,3.80
2022-11-12T21:11:28.105Z,3.80
2022-11-12T21:13:56.470Z,3.80
2022-11-12T21:16:26.120Z,3.70
2022-11-12T21:21:23.121Z,3.70
2022-11-12T21:23:51.714Z,3.70
2022-11-12T21:26:21.485Z,3.70
2022-11-12T21:28:51.676Z,3.80
2022-11-12T21:31:22.326Z,3.80
2022-11-12T21:33:52.938Z,6.60
2022-11-12T21:36:21.769Z,3.80
2022-11-12T21:38:50.385Z,4.20
2022-11-12T21:41:20.070Z,4.80
2022-11-12T21:43:49.105Z,3.80
2022-11-12T21:46:20.031Z,4.70
2022-11-12T21:48:54.746Z,3.90
2022-11-12T21:51:27.073Z,2.50
2022-11-12T21:53:55.904Z,5.60
2022-11-12T21:56:24.796Z,6.30
2022-11-12T21:58:54.371Z,3.60
2022-11-12T22:01:25.218Z,3.50
2022-11-12T22:03:55.075Z,3.50
2022-11-12T22:06:25.971Z,3.50
2022-11-12T22:11:23.496Z,3.50
2022-11-12T22:13:51.770Z,3.40
2022-11-12T22:16:21.980Z,3.30
2022-11-12T22:18:51.797Z,3.40
2022-11-12T22:21:22.648Z,3.40
2022-11-12T22:23:52.027Z,3.30
2022-11-12T22:26:24.413Z,3.40
2022-11-12T22:28:53.210Z,3.30
2022-11-12T22:31:22.742Z,3.30
2022-11-12T22:33:51.582Z,3.30
2022-11-12T22:36:22.926Z,3.20
2022-11-12T22:38:54.120Z,3.30
2022-11-12T22:41:23.722Z,3.30
2022-11-12T22:43:54.154Z,3.20
2022-11-12T22:46:23.595Z,3.20
2022-11-12T22:51:21.980Z,3.30
2022-11-12T22:53:56.297Z,3.30
2022-11-12T22:56:25.693Z,3.20
2022-11-12T22:58:54.864Z,3.20
2022-11-12T23:01:25.236Z,3.20
2022-11-12T23:03:55.949Z,3.10
2022-11-12T23:06:25.307Z,3.10
2022-11-12T23:11:26.006Z,3.10
2022-11-12T23:13:54.931Z,3.10
2022-11-12T23:16:24.661Z,3.10
2022-11-12T23:18:53.357Z,3.00
2022-11-12T23:21:23.526Z,3.00
2022-11-12T23:23:52.072Z,3.60
2022-11-12T23:26:23.601Z,3.20
2022-11-12T23:28:52.311Z,3.10
2022-11-12T23:31:22.111Z,3.40
2022-11-12T23:33:52.359Z,3.70
2022-11-12T23:36:21.505Z,3.10
2022-11-12T23:38:49.649Z,4.10
2022-11-12T23:41:19.269Z,3.10
2022-11-12T23:43:48.641Z,3.10
2022-11-12T23:46:17.027Z,3.10
2022-11-12T23:48:45.123Z,4.80
2022-11-12T23:51:14.546Z,4.00
2022-11-12T23:53:43.337Z,3.10
2022-11-12T23:56:13.306Z,2.90
2022-11-12T23:58:42.100Z,4.00
